• Join FlightAware (Why Join?)
  • Login
  • US Flag 
08:41PM EDT


 

Airport Tracker/Info


-or-


 

Live Flight TrackerFlight Track Log ✈ UAL1035 ✈ 18-Nov-2013 ✈ KIAH - SEQM / UIO

Flight Track Log - Related Links

Times and Time Zones

All times are in EST time to prevent confusion due to time zone crossing. See the UAL1035 flight status page for this flight to view local times or setup timezone preferences in your user account.

Time Position Orientation Groundspeed Altitude Reporting Facility
EST Latitude Longitude Course Direction KTS MPH feet Rate Location/Type
06:51PM 29.9518 -95.3331 149° Southeast 165 190 1,100  Level FlightAware ADS-B
06:51PM 29.9484 -95.3286 131° Southeast 175 201 1,200 1,320 Climbing FlightAware ADS-B
06:51PM 29.9394 -95.3164 130° Southeast 189 217 1,600 1,500 Climbing FlightAware ADS-B
06:52PM 29.9302 -95.3034 129° Southeast 213 245 2,000 1,680 Climbing FlightAware ADS-B
06:52PM 29.9226 -95.2923 128° Southeast 222 255 2,400 2,700 Climbing FlightAware ADS-B
06:52PM 29.9169 -95.2839 128° Southeast 222 255 2,900 3,480 Climbing FlightAware ADS-B
06:52PM 29.9143 -95.2803 130° Southeast 221 254 3,100 3,420 Climbing FlightAware ADS-B
06:52PM 29.9122 -95.2778 134° Southeast 221 254 3,300 9,000 Climbing FlightAware ADS-B
06:52PM 29.9081 -95.2733 137° Southeast 222 255 3,700 2,580 Climbing FlightAware ADS-B
06:52PM 29.9005 -95.2654 138° Southeast 229 264 4,000 1,380 Climbing FlightAware ADS-B
06:53PM 29.8916 -95.2565 139° Southeast 243 280 4,300 1,680 Climbing FlightAware ADS-B
06:53PM 29.8881 -95.2537 145° Southeast 249 287 4,400 1,800 Climbing FlightAware ADS-B
06:53PM 29.8813 -95.2486 147° Southeast 258 297 4,600 2,520 Climbing FlightAware ADS-B
06:53PM 29.8723 -95.2420 147° Southeast 264 304 5,000 2,400 Climbing FlightAware ADS-B
06:53PM 29.8658 -95.2373 148° Southeast 266 306 5,200 1,980 Climbing FlightAware ADS-B
06:53PM 29.8490 -95.2250 148° Southeast 274 315 5,800 2,520 Climbing FlightAware ADS-B
06:53PM 29.8428 -95.2206 148° Southeast 276 318 6,100 3,000 Climbing FlightAware ADS-B
06:53PM 29.8335 -95.2145 150° Southeast 279 321 6,500 4,800 Climbing FlightAware ADS-B
06:54PM 29.8268 -95.2105 153° Southeast 280 322 6,900 3,180 Climbing FlightAware ADS-B
06:54PM 29.8177 -95.2050 152° Southeast 283 326 7,200 2,160 Climbing FlightAware ADS-B
06:54PM 29.8061 -95.1981 153° Southeast 283 326 7,700 2,880 Climbing FlightAware ADS-B
06:54PM 29.7890 -95.1875 152° Southeast 285 328 8,400 3,420 Climbing FlightAware ADS-B
06:54PM 29.7785 -95.1811 152° Southeast 286 329 8,800 2,760 Climbing FlightAware ADS-B
06:54PM 29.7711 -95.1766 152° Southeast 287 330 9,100 3,120 Climbing FlightAware ADS-B
06:55PM 29.7586 -95.1689 152° Southeast 289 333 9,800 3,000 Climbing FlightAware ADS-B
06:55PM 29.7531 -95.1655 152° Southeast 289 333 9,900 1,740 Climbing FlightAware ADS-B
06:55PM 29.7310 -95.1520 152° Southeast 297 342 10,600 2,040 Climbing FlightAware ADS-B
06:55PM 29.7204 -95.1453 151° Southeast 308 354 10,700 1,080 Climbing FlightAware ADS-B
06:55PM 29.7167 -95.1429 151° Southeast 310 357 10,800 900 Climbing FlightAware ADS-B
06:56PM 29.6810 -95.1210 152° Southeast 341 392 11,200 960 Climbing FlightAware ADS-B
06:56PM 29.6753 -95.1176 153° Southeast 344 396 11,300 1,980 Climbing FlightAware ADS-B
06:56PM 29.6660 -95.1119 152° Southeast 354 407 11,400 960 Climbing FlightAware ADS-B
06:56PM 29.6306 -95.0901 152° Southeast 377 434 11,800 1,140 Climbing FlightAware ADS-B
06:56PM 29.6196 -95.0832 152° Southeast 383 441 12,000 2,160 Climbing FlightAware ADS-B
06:57PM 29.5831 -95.0606 152° Southeast 388 447 12,900 1,980 Climbing FlightAware ADS-B
06:57PM 29.5790 -95.0580 151° Southeast 390 449 13,000 3,300 Climbing FlightAware ADS-B
06:57PM 29.5651 -95.0495 152° Southeast 392 451 13,400 2,100 Climbing FlightAware ADS-B
06:57PM 29.5241 -95.0241 152° Southeast 398 458 14,200 1,740 Climbing FlightAware ADS-B
06:57PM 29.5190 -95.0210 152° Southeast 399 459 14,300 2,220 Climbing FlightAware ADS-B
06:58PM 29.4773 -94.9953 152° Southeast 392 451 15,100 2,040 Climbing FlightAware ADS-B
06:58PM 29.4720 -94.9920 151° Southeast 408 470 15,300 2,040 Climbing FlightAware ADS-B
06:58PM 29.4370 -94.9700 151° Southeast 410 472 16,100 2,400 Climbing FlightAware ADS-B
06:58PM 29.4208 -94.9606 153° Southeast 409 471 16,500 3,000 Climbing FlightAware ADS-B
06:58PM 29.4084 -94.9530 152° Southeast 412 474 16,700 1,740 Climbing FlightAware ADS-B
06:59PM 29.3930 -94.9440 153° Southeast 413 475 17,000 1,500 Climbing FlightAware ADS-B
06:59PM 29.3702 -94.9296 151° Southeast 417 480 17,400 2,220 Climbing FlightAware ADS-B
06:59PM 29.3618 -94.9245 152° Southeast 419 482 17,600 1,740 Climbing FlightAware ADS-B
06:59PM 29.3172 -94.8971 152° Southeast 422 486 18,300 1,740 Climbing FlightAware ADS-B
07:00PM 29.2824 -94.8757 152° Southeast 424 488 19,000 1,920 Climbing FlightAware ADS-B
07:00PM 29.2750 -94.8710 151° Southeast 413 475 19,100 1,800 Climbing FlightAware ADS-B
07:00PM 29.2653 -94.8639 147° Southeast 428 493 19,300 1,800 Climbing FlightAware ADS-B
07:00PM 29.2155 -94.8224 144° Southeast 435 501 20,200 1,560 Climbing FlightAware ADS-B
07:01PM 29.1642 -94.7789 143° Southeast 442 509 21,000 1,500 Climbing FlightAware ADS-B
07:01PM 29.1137 -94.7362 144° Southeast 448 516 21,800 1,740 Climbing FlightAware ADS-B
07:02PM 29.0960 -94.7210 143° Southeast 449 517 22,200 1,920 Climbing FlightAware ADS-B
07:02PM 29.0621 -94.6927 144° Southeast 449 517 22,800 1,620 Climbing FlightAware ADS-B
07:03PM 28.9982 -94.6390 144° Southeast 452 520 23,800 1,500 Climbing FlightAware ADS-B
07:03PM 28.9820 -94.6260 145° Southeast 455 524 24,000 1,440 Climbing FlightAware ADS-B
07:03PM 28.9430 -94.5923 143° Southeast 456 525 24,600 1,320 Climbing FlightAware ADS-B
07:04PM 28.8845 -94.5431 144° Southeast 460 529 25,300 1,200 Climbing FlightAware ADS-B
07:04PM 28.8268 -94.4948 144° Southeast 464 534 26,000 1,200 Climbing FlightAware ADS-B
07:05PM 28.7631 -94.4416 144° Southeast 469 540 26,700 1,200 Climbing FlightAware ADS-B
07:05PM 28.7096 -94.3970 144° Southeast 471 542 27,400 2,160 Climbing FlightAware ADS-B
07:06PM 28.6482 -94.3458 144° Southeast 450 518 29,100 2,040 Climbing FlightAware ADS-B
07:06PM 28.5921 -94.2995 144° Southeast 446 513 29,800 1,200 Climbing FlightAware ADS-B
07:07PM 28.5409 -94.2571 144° Southeast 451 519 30,400 960 Climbing FlightAware ADS-B
07:08PM 28.4781 -94.2050 144° Southeast 458 527 30,900 1,080 Climbing FlightAware ADS-B
07:08PM 28.4183 -94.1551 144° Southeast 453 521 31,700 1,500 Climbing FlightAware ADS-B
07:09PM 28.3673 -94.1134 144° Southeast 442 509 32,600 1,200 Climbing FlightAware ADS-B
07:10PM 28.2694 -94.0326 144° Southeast 442 509 33,500 720 Climbing FlightAware ADS-B
07:10PM 28.2180 -93.9900 144° Southeast 443 510 33,700 480 Climbing FlightAware ADS-B
07:11PM 28.1548 -93.9379 144° Southeast 446 513 34,100 480 Climbing FlightAware ADS-B
07:11PM 28.1164 -93.9058 144° Southeast 444 511 34,300 480 Climbing Houston Center
07:12PM 28.0144 -93.8208 144° Southeast 453 521 34,900 300 Climbing Houston Center
07:13PM 27.9103 -93.7353 144° Southeast 462 532 35,000  Climbing Houston Center
07:14PM 27.8031 -93.6500 145° Southeast 470 541 35,000  Level Houston Center
07:15PM 27.6753 -93.5447 144° Southeast 475 547 35,000  Level Houston Center
07:17PM 27.5675 -93.4575 144° Southeast 475 547 35,000  Level Houston Center
07:18PM 27.4614 -93.3697 144° Southeast 473 544 35,000  Level Houston Center
07:19PM 27.3544 -93.2858 145° Southeast 472 543 35,000  Level Houston Center
07:20PM 27.2486 -93.1983 144° Southeast 472 543 35,000  Level Houston Center
07:21PM 27.1428 -93.1122 144° Southeast 469 540 35,000  Level Houston Center
07:22PM 27.0144 -93.0122 145° Southeast 469 540 35,000  Level Houston Center
07:23PM 26.9183 -92.9350 144° Southeast 469 540 35,000 -60 Level Houston Center
07:24PM 26.8136 -92.8500 144° Southeast 468 539 34,900 -120 Descending Houston Center
07:26PM 26.6306 -92.7214 149° Southeast  Level FlightAware Approximate
07:33PM 25.8839 -92.2327 150° Southeast  Level FlightAware Approximate
07:34PM 25.7771 -92.1634 150° Southeast  Level FlightAware Approximate
07:35PM 25.6696 -92.0934 150° Southeast  Level FlightAware Approximate
07:36PM 25.5620 -92.0236 150° Southeast  Level FlightAware Approximate
07:37PM 25.4554 -91.9521 148° Southeast  Level FlightAware Approximate
07:38PM 25.3501 -91.8784 148° Southeast  Level FlightAware Approximate
07:39PM 25.2428 -91.8083 150° Southeast  Level FlightAware Approximate
07:40PM 25.1351 -91.7390 150° Southeast  Level FlightAware Approximate
07:41PM 25.0274 -91.6699 150° Southeast  Level FlightAware Approximate
07:42PM 24.9196 -91.6008 150° Southeast  Level FlightAware Approximate
07:43PM 24.8118 -91.5319 150° Southeast  Level FlightAware Approximate
07:44PM 24.7040 -91.4631 150° Southeast  Level FlightAware Approximate
07:45PM 24.5961 -91.3944 150° Southeast  Level FlightAware Approximate
07:46PM 24.4876 -91.3273 156° South  Level FlightAware Approximate
07:47PM 24.3736 -91.2720 156° South  Level FlightAware Approximate
07:48PM 24.2596 -91.2168 156° South  Level FlightAware Approximate
07:49PM 24.1455 -91.1616 156° South  Level FlightAware Approximate
07:50PM 24.0315 -91.1066 156° South  Level FlightAware Approximate
07:51PM 23.9174 -91.0517 156° South  Level FlightAware Approximate
07:52PM 23.8033 -90.9968 156° South  Level FlightAware Approximate
07:53PM 23.6892 -90.9421 156° South  Level FlightAware Approximate
07:54PM 23.5751 -90.8875 156° South  Level FlightAware Approximate
07:55PM 23.4610 -90.8329 156° South  Level FlightAware Approximate
07:56PM 23.3468 -90.7785 156° South  Level FlightAware Approximate
07:57PM 23.2326 -90.7241 156° South  Level FlightAware Approximate
07:58PM 23.1184 -90.6699 156° South  Level FlightAware Approximate
07:59PM 23.0042 -90.6157 156° South  Level FlightAware Approximate
08:00PM 22.8900 -90.5616 156° South  Level FlightAware Approximate
08:01PM 22.7757 -90.5076 156° South  Level FlightAware Approximate
08:02PM 22.6614 -90.4537 156° South  Level FlightAware Approximate
08:03PM 22.5471 -90.3999 156° South  Level FlightAware Approximate
08:04PM 22.4328 -90.3462 157° South  Level FlightAware Approximate
08:05PM 22.3185 -90.2926 157° South  Level FlightAware Approximate
08:06PM 22.2042 -90.2390 157° South  Level FlightAware Approximate
08:07PM 22.0898 -90.1856 157° South  Level FlightAware Approximate
08:08PM 21.9754 -90.1322 157° South  Level FlightAware Approximate
08:09PM 21.8610 -90.0789 157° South  Level FlightAware Approximate
08:10PM 21.7466 -90.0257 157° South  Level FlightAware Approximate
08:11PM 21.6322 -89.9726 157° South  Level FlightAware Approximate
08:12PM 21.5175 -89.9203 157° South  Level FlightAware Approximate
08:13PM 21.4025 -89.8686 157° South  Level FlightAware Approximate
08:14PM 21.2876 -89.8169 157° South  Level FlightAware Approximate
08:15PM 21.1733 -89.7636 156° South  Level FlightAware Approximate
08:16PM 21.0593 -89.7096 156° South  Level FlightAware Approximate
08:17PM 20.9453 -89.6557 156° South  Level FlightAware Approximate
08:18PM 20.8298 -89.6056 158° South  Level FlightAware Approximate
08:19PM 20.7141 -89.5561 158° South  Level FlightAware Approximate
08:20PM 20.5976 -89.5090 159° South  Level FlightAware Approximate
08:21PM 20.4809 -89.4623 159° South  Level FlightAware Approximate
08:22PM 20.3631 -89.4189 161° South  Level FlightAware Approximate
08:23PM 20.2449 -89.3767 161° South  Level FlightAware Approximate
08:24PM 20.1280 -89.3308 159° South  Level FlightAware Approximate
08:25PM 20.0115 -89.2837 159° South  Level FlightAware Approximate
08:26PM 19.8950 -89.2367 159° South  Level FlightAware Approximate
08:27PM 19.7785 -89.1898 159° South  Level FlightAware Approximate
08:28PM 19.6619 -89.1429 159° South  Level FlightAware Approximate
08:29PM 19.5453 -89.0961 159° South  Level FlightAware Approximate
08:30PM 19.4288 -89.0493 159° South  Level FlightAware Approximate
08:31PM 19.3122 -89.0027 159° South  Level FlightAware Approximate
08:32PM 19.1956 -88.9561 159° South  Level FlightAware Approximate
08:33PM 19.0790 -88.9095 159° South  Level FlightAware Approximate
08:34PM 18.9624 -88.8631 159° South  Level FlightAware Approximate
08:35PM 18.8457 -88.8167 159° South  Level FlightAware Approximate
08:36PM 18.7291 -88.7703 159° South  Level FlightAware Approximate
08:37PM 18.6124 -88.7240 159° South  Level FlightAware Approximate
08:38PM 18.4958 -88.6778 159° South  Level FlightAware Approximate
08:39PM 18.3793 -88.6312 154° Southeast  Level FlightAware Approximate
08:40PM 18.2673 -88.5737 154° Southeast  Level FlightAware Approximate
08:41PM 18.1553 -88.5162 154° Southeast  Level FlightAware Approximate
08:42PM 18.0432 -88.4588 154° Southeast  Level FlightAware Approximate
08:43PM 17.9312 -88.4014 154° Southeast  Level FlightAware Approximate
08:44PM 17.8191 -88.3441 154° Southeast  Level FlightAware Approximate
08:45PM 17.7071 -88.2869 154° Southeast  Level FlightAware Approximate
08:46PM 17.5951 -88.2294 154° Southeast  Level FlightAware Approximate
08:47PM 17.4832 -88.1720 154° Southeast  Level FlightAware Approximate
08:48PM 17.3713 -88.1146 154° Southeast  Level FlightAware Approximate
08:49PM 17.2593 -88.0573 154° Southeast  Level FlightAware Approximate
08:50PM 17.1473 -88.0000 154° Southeast  Level FlightAware Approximate
08:51PM 17.0353 -87.9428 154° Southeast  Level FlightAware Approximate
08:52PM 16.9233 -87.8857 154° Southeast  Level FlightAware Approximate
08:53PM 16.8113 -87.8287 154° Southeast  Level FlightAware Approximate
08:54PM 16.6992 -87.7717 154° Southeast  Level FlightAware Approximate
08:55PM 16.5872 -87.7148 154° Southeast  Level FlightAware Approximate
08:56PM 16.4751 -87.6580 154° Southeast  Level FlightAware Approximate
08:57PM 16.3630 -87.6012 154° Southeast  Level FlightAware Approximate
08:58PM 16.2509 -87.5445 154° Southeast  Level FlightAware Approximate
08:59PM 16.1388 -87.4878 154° Southeast  Level FlightAware Approximate
09:00PM 16.0263 -87.4310 154° Southeast  Level FlightAware Approximate
09:01PM 15.9137 -87.3743 154° Southeast  Level FlightAware Approximate
09:02PM 15.8011 -87.3176 154° Southeast  Level FlightAware Approximate
09:03PM 15.6885 -87.2611 154° Southeast  Level FlightAware Approximate
09:04PM 15.5759 -87.2046 154° Southeast  Level FlightAware Approximate
09:05PM 15.4632 -87.1483 154° Southeast  Level FlightAware Approximate
09:06PM 15.3498 -87.0935 155° Southeast  Level FlightAware Approximate
09:07PM 15.2362 -87.0393 155° Southeast  Level FlightAware Approximate
09:08PM 15.1226 -86.9852 155° Southeast  Level FlightAware Approximate
09:09PM 15.0089 -86.9311 155° Southeast  Level FlightAware Approximate
09:10PM 14.8953 -86.8771 155° Southeast  Level FlightAware Approximate
09:11PM 14.7816 -86.8232 155° Southeast  Level FlightAware Approximate
09:12PM 14.6679 -86.7693 155° Southeast  Level FlightAware Approximate
09:13PM 14.5542 -86.7154 155° Southeast  Level FlightAware Approximate
09:14PM 14.4405 -86.6616 155° Southeast  Level FlightAware Approximate
09:15PM 14.3267 -86.6079 155° Southeast  Level FlightAware Approximate
09:16PM 14.2130 -86.5542 155° Southeast  Level FlightAware Approximate
09:17PM 14.0992 -86.5006 155° Southeast  Level FlightAware Approximate
09:18PM 13.9855 -86.4471 155° Southeast  Level FlightAware Approximate
09:19PM 13.8717 -86.3935 155° Southeast  Level FlightAware Approximate
09:20PM 13.7576 -86.3407 156° South  Level FlightAware Approximate
09:21PM 13.6435 -86.2881 156° South  Level FlightAware Approximate
09:22PM 13.5293 -86.2355 156° South  Level FlightAware Approximate
09:23PM 13.4151 -86.1830 156° South  Level FlightAware Approximate
09:24PM 13.3010 -86.1305 156° South  Level FlightAware Approximate
09:25PM 13.1868 -86.0781 156° South  Level FlightAware Approximate
09:26PM 13.0726 -86.0257 156° South  Level FlightAware Approximate
09:27PM 12.9584 -85.9734 156° South  Level FlightAware Approximate
09:28PM 12.8441 -85.9211 156° South  Level FlightAware Approximate
09:29PM 12.7299 -85.8689 156° South  Level FlightAware Approximate
09:30PM 12.6157 -85.8167 156° South  Level FlightAware Approximate
09:31PM 12.5014 -85.7646 156° South  Level FlightAware Approximate
09:32PM 12.3872 -85.7125 156° South  Level FlightAware Approximate
09:33PM 12.2729 -85.6604 156° South  Level FlightAware Approximate
09:34PM 12.1586 -85.6085 156° South  Level FlightAware Approximate
09:35PM 12.0442 -85.5567 156° South  Level FlightAware Approximate
09:36PM 11.9299 -85.5050 156° South  Level FlightAware Approximate
09:37PM 11.8155 -85.4532 156° South  Level FlightAware Approximate
09:38PM 11.7011 -85.4016 156° South  Level FlightAware Approximate
09:39PM 11.5867 -85.3499 156° South  Level FlightAware Approximate
09:40PM 11.4734 -85.2960 154° Southeast  Level FlightAware Approximate
09:41PM 11.3605 -85.2410 154° Southeast  Level FlightAware Approximate
09:42PM 11.2476 -85.1861 154° Southeast  Level FlightAware Approximate
09:43PM 11.1348 -85.1312 154° Southeast  Level FlightAware Approximate
09:44PM 11.0219 -85.0763 155° Southeast  Level FlightAware Approximate
09:45PM 10.9090 -85.0215 154° Southeast  Level FlightAware Approximate
09:46PM 10.7962 -84.9665 154° Southeast  Level FlightAware Approximate
09:47PM 10.6833 -84.9116 154° Southeast  Level FlightAware Approximate
09:48PM 10.5705 -84.8567 154° Southeast  Level FlightAware Approximate
09:49PM 10.4576 -84.8018 154° Southeast  Level FlightAware Approximate
09:50PM 10.3448 -84.7470 154° Southeast  Level FlightAware Approximate
09:51PM 10.2314 -84.6933 155° Southeast  Level FlightAware Approximate
09:52PM 10.1179 -84.6399 155° Southeast  Level FlightAware Approximate
09:53PM 10.0044 -84.5866 155° Southeast  Level FlightAware Approximate
09:54PM 9.8909 -84.5333 155° Southeast  Level FlightAware Approximate
09:55PM 9.7773 -84.4801 155° Southeast  Level FlightAware Approximate
09:56PM 9.6638 -84.4269 155° Southeast  Level FlightAware Approximate
09:57PM 9.5502 -84.3737 155° Southeast  Level FlightAware Approximate
09:58PM 9.4367 -84.3206 155° Southeast  Level FlightAware Approximate
09:59PM 9.3231 -84.2675 155° Southeast  Level FlightAware Approximate
10:00PM 9.2095 -84.2144 155° Southeast  Level FlightAware Approximate
10:01PM 9.0959 -84.1614 155° Southeast  Level FlightAware Approximate
10:02PM 8.9823 -84.1084 155° Southeast  Level FlightAware Approximate
10:03PM 8.8687 -84.0555 155° Southeast  Level FlightAware Approximate
10:04PM 8.7551 -84.0025 155° Southeast  Level FlightAware Approximate
10:05PM 8.6415 -83.9496 155° Southeast  Level FlightAware Approximate
10:06PM 8.5279 -83.8968 155° Southeast  Level FlightAware Approximate
10:07PM 8.4142 -83.8439 155° Southeast  Level FlightAware Approximate
10:08PM 8.3006 -83.7911 155° Southeast  Level FlightAware Approximate
10:09PM 8.1869 -83.7384 155° Southeast  Level FlightAware Approximate
10:10PM 8.0733 -83.6856 155° Southeast  Level FlightAware Approximate
10:11PM 7.9596 -83.6329 155° Southeast  Level FlightAware Approximate
10:12PM 7.8460 -83.5802 155° Southeast  Level FlightAware Approximate
10:13PM 7.7320 -83.5282 156° South  Level FlightAware Approximate
10:14PM 7.6180 -83.4763 156° South  Level FlightAware Approximate
10:15PM 7.5040 -83.4245 156° South  Level FlightAware Approximate
10:16PM 7.3899 -83.3727 156° South  Level FlightAware Approximate
10:17PM 7.2759 -83.3209 156° South  Level FlightAware Approximate
10:18PM 7.1618 -83.2691 156° South  Level FlightAware Approximate
10:19PM 7.0478 -83.2174 156° South  Level FlightAware Approximate
10:20PM 6.9337 -83.1657 156° South  Level FlightAware Approximate
10:21PM 6.8196 -83.1141 156° South  Level FlightAware Approximate
10:22PM 6.7056 -83.0624 156° South  Level FlightAware Approximate
10:23PM 6.5919 -83.0110 156° South  Level FlightAware Approximate
10:24PM 6.4782 -82.9596 156° South  Level FlightAware Approximate
10:25PM 6.3662 -82.9052 146° Southeast  Level FlightAware Approximate
10:26PM 6.2632 -82.8347 145° Southeast  Level FlightAware Approximate
10:27PM 6.1605 -82.7636 145° Southeast  Level FlightAware Approximate
10:28PM 6.0579 -82.6925 145° Southeast  Level FlightAware Approximate
10:29PM 5.9553 -82.6214 145° Southeast  Level FlightAware Approximate
10:30PM 5.8526 -82.5504 145° Southeast  Level FlightAware Approximate
10:31PM 5.7500 -82.4794 145° Southeast  Level FlightAware Approximate
10:32PM 5.6473 -82.4083 145° Southeast  Level FlightAware Approximate
10:33PM 5.5448 -82.3372 145° Southeast  Level FlightAware Approximate
10:34PM 5.4422 -82.2661 145° Southeast  Level FlightAware Approximate
10:35PM 5.3397 -82.1950 145° Southeast  Level FlightAware Approximate
10:36PM 5.2371 -82.1239 145° Southeast  Level FlightAware Approximate
10:37PM 5.1345 -82.0528 145° Southeast  Level FlightAware Approximate
10:38PM 5.0319 -81.9818 145° Southeast  Level FlightAware Approximate
10:39PM 4.9293 -81.9108 145° Southeast  Level FlightAware Approximate
10:40PM 4.8267 -81.8398 145° Southeast  Level FlightAware Approximate
10:41PM 4.7241 -81.7688 145° Southeast  Level FlightAware Approximate
10:42PM 4.6215 -81.6979 145° Southeast  Level FlightAware Approximate
10:43PM 4.5189 -81.6270 145° Southeast  Level FlightAware Approximate
10:44PM 4.4163 -81.5561 145° Southeast  Level FlightAware Approximate
10:45PM 4.3136 -81.4852 145° Southeast  Level FlightAware Approximate
10:46PM 4.2110 -81.4143 145° Southeast  Level FlightAware Approximate
10:47PM 4.1083 -81.3435 145° Southeast  Level FlightAware Approximate
10:48PM 4.0057 -81.2727 145° Southeast  Level FlightAware Approximate
10:49PM 3.9030 -81.2018 145° Southeast  Level FlightAware Approximate
10:50PM 3.8003 -81.1311 145° Southeast  Level FlightAware Approximate
10:51PM 3.6977 -81.0603 145° Southeast  Level FlightAware Approximate
10:52PM 3.5965 -80.9905 145° Southeast  Level FlightAware Approximate
10:53PM 3.4952 -80.9208 145° Southeast  Level FlightAware Approximate
10:54PM 3.3940 -80.8511 145° Southeast  Level FlightAware Approximate
10:55PM 3.2928 -80.7814 145° Southeast  Level FlightAware Approximate
10:56PM 3.1916 -80.7117 145° Southeast  Level FlightAware Approximate
10:57PM 3.0903 -80.6420 146° Southeast  Level FlightAware Approximate
10:58PM 2.9891 -80.5723 146° Southeast  Level FlightAware Approximate
10:59PM 2.8878 -80.5027 146° Southeast  Level FlightAware Approximate
11:00PM 2.7866 -80.4331 146° Southeast  Level FlightAware Approximate
11:01PM 2.6853 -80.3634 146° Southeast  Level FlightAware Approximate
11:02PM 2.5840 -80.2938 146° Southeast  Level FlightAware Approximate
11:03PM 2.4828 -80.2242 146° Southeast  Level FlightAware Approximate
11:04PM 2.3815 -80.1546 146° Southeast  Level FlightAware Approximate
11:05PM 2.2803 -80.0851 146° Southeast  Level FlightAware Approximate
11:06PM 2.1790 -80.0155 146° Southeast  Level FlightAware Approximate
11:07PM 2.0777 -79.9459 146° Southeast  Level FlightAware Approximate
11:08PM 1.9764 -79.8764 146° Southeast  Level FlightAware Approximate
11:09PM 1.8751 -79.8068 146° Southeast  Level FlightAware Approximate
11:10PM 1.7737 -79.7374 146° Southeast  Level FlightAware Approximate
11:11PM 1.6722 -79.6682 146° Southeast  Level FlightAware Approximate
11:12PM 1.5707 -79.5990 146° Southeast  Level FlightAware Approximate
11:13PM 1.4692 -79.5298 146° Southeast  Level FlightAware Approximate
11:14PM 1.3621 -79.4701 148° Southeast  Level FlightAware Approximate
11:15PM 1.2579 -79.4050 148° Southeast  Level FlightAware Approximate
11:16PM 1.1576 -79.3340 144° Southeast  Level FlightAware Approximate
11:17PM 1.0577 -79.2626 144° Southeast  Level FlightAware Approximate
11:18PM 0.9577 -79.1912 144° Southeast  Level FlightAware Approximate
11:19PM 0.8565 -79.1216 147° Southeast  Level FlightAware Approximate
11:20PM 0.7537 -79.0544 147° Southeast  Level FlightAware Approximate
11:21PM 0.6509 -78.9871 147° Southeast  Level FlightAware Approximate
11:22PM 0.5481 -78.9199 147° Southeast  Level FlightAware Approximate
11:23PM 0.4462 -78.8513 143° Southeast  Level FlightAware Approximate
11:24PM 0.3480 -78.7776 143° Southeast  Level FlightAware Approximate
11:25PM 0.2451 -78.7105 148° Southeast  Level FlightAware Approximate
11:26PM 0.1419 -78.6439 143° Southeast  Level FlightAware Approximate
11:27PM 0.0437 -78.5702 143° Southeast  Level FlightAware Approximate
11:28PM -0.0416 -78.4836 117° Southeast  Level FlightAware Approximate
11:29PM -0.1411 -78.4882 112° Southeast  Level Estimated
11:30PM -0.1411 -78.4882 112° Southeast  Level Estimated
11:31PM -0.1411 -78.4882 112° Southeast  Level Estimated
11:32PM -0.1411 -78.4882 112° Southeast  Level Estimated